Details From MNBL - BLUEFIELDS
To SKSP - GUSTAVO ROJAS PINILLA
Flight Number -
Tags generated
Created
Modified
Stats Distance 126 nm / 234 km
Max Altitude 8,400 ft / 2,560 m
Waypoints 3
Social Downloads 1
Likes 0
Share VATSIM

Download

Looking for another format? Having issues loading an existing format? Contact us
Advertisement - Login to hide

Notes

Basic altitude profile: - Ascent Rate: 2500ft/min - Ascent Speed: 250kts - Cruise Altitude: 35000ft - Cruise Speed: 420kts - Descent Rate: 1500ft/min - Descent Speed: 250kts Options: - Use NATs: yes - Use PACOTS: yes - Use low airways: yes - Use high airways: yes

Route

MNBL KADOS SKSP

ID Type Via Altitude Latitude Longitude Leg Dist Tot Dist Heading (true) Name
O MNBL APT - 0 ft / 0 m 11.99096˚ -83.77409˚ - 0 nm - BLUEFIELDS
KADOS FIX - 8,400 ft / 2,560 m 12.39833˚ -82.36028˚ 86 nm 86 nm 73° / 74° -
O SKSP APT - 0 ft / 0 m 12.58359˚ -81.71119˚ 39 nm 126 nm 74° / 74° GUSTAVO ROJAS PINILLA

Altitude Profile

Advertisement - Login to hide

MNBL

Details ICAO MNBL (BEF)
Name BLUEFIELDS
Region Nicaragua
Timezone America/Managua (UTC-6.0)
Stats Elevation 41 ft / 12 m (AMSL)
Location 11.990961° -83.774086°
Runways 1
Magnetic Variation 2.325° W

METAR

MNBL 151800Z 07004KT 9999 SCT018 29/24 Q1013 2AC090

Decode

TAF

Not found

Departure Runways

ID Width Length Bearing (true) Bearing (mag) Surface Threshold Offset Overrun Length
05 98 ft / 30 m 6,631 ft / 2,021 m 56.77° 59.09° Asphalt 0 ft / 0 m 0 ft / 0 m
23 98 ft / 30 m 6,631 ft / 2,021 m 236.78° 239.10° Asphalt 645 ft / 197 m 0 ft / 0 m

SKSP

Details ICAO SKSP (ADZ)
Name GUSTAVO ROJAS PINILLA
Region Colombia
Timezone Unknown (UTC+0.0)
Stats Elevation 19 ft / 6 m (AMSL)
Location 12.583595° -81.711191°
Runways 1
Magnetic Variation 3.677° W

METAR

SKSP 151800Z 07011KT 9999 FEW018 30/23 A2989

Decode

TAF

Not found

Destination Runways

ID Width Length Bearing (true) Bearing (mag) Surface Threshold Offset Overrun Length
06 148 ft / 45 m 7,815 ft / 2,382 m 59.54° 63.22° Asphalt 0 ft / 0 m 0 ft / 0 m
24 148 ft / 45 m 7,815 ft / 2,382 m 239.55° 243.23° Asphalt 0 ft / 0 m 180 ft / 55 m